sensor_id;sensor_type;location;lat;lon;timestamp;P1;durP1;ratioP1;P2;durP2;ratioP2
7398;SDS011;3740;50.700;7.184;2022-08-25T00:01:21;3.88;;;3.53;;
7398;SDS011;3740;50.700;7.184;2022-08-25T00:03:49;4.55;;;3.50;;
7398;SDS011;3740;50.700;7.184;2022-08-25T00:06:16;3.83;;;3.42;;
7398;SDS011;3740;50.700;7.184;2022-08-25T00:08:42;4.00;;;3.60;;
7398;SDS011;3740;50.700;7.184;2022-08-25T00:11:09;3.90;;;3.60;;
7398;SDS011;3740;50.700;7.184;2022-08-25T00:13:38;4.35;;;3.58;;
7398;SDS011;3740;50.700;7.184;2022-08-25T00:16:08;3.40;;;3.10;;
7398;SDS011;3740;50.700;7.184;2022-08-25T00:18:38;3.80;;;3.42;;
7398;SDS011;3740;50.700;7.184;2022-08-25T00:21:05;3.70;;;3.17;;
7398;SDS011;3740;50.700;7.184;2022-08-25T00:23:30;3.30;;;3.10;;
7398;SDS011;3740;50.700;7.184;2022-08-25T00:25:56;3.85;;;3.35;;
7398;SDS011;3740;50.700;7.184;2022-08-25T00:28:22;5.22;;;3.85;;
7398;SDS011;3740;50.700;7.184;2022-08-25T00:30:48;3.95;;;3.28;;
7398;SDS011;3740;50.700;7.184;2022-08-25T00:33:14;3.90;;;3.50;;
7398;SDS011;3740;50.700;7.184;2022-08-25T00:35:40;3.63;;;3.33;;
7398;SDS011;3740;50.700;7.184;2022-08-25T00:38:07;3.78;;;3.47;;
7398;SDS011;3740;50.700;7.184;2022-08-25T00:40:34;3.72;;;3.42;;
7398;SDS011;3740;50.700;7.184;2022-08-25T00:43:01;5.03;;;3.50;;
7398;SDS011;3740;50.700;7.184;2022-08-25T00:45:27;3.65;;;3.35;;
7398;SDS011;3740;50.700;7.184;2022-08-25T00:47:53;4.38;;;3.70;;
7398;SDS011;3740;50.700;7.184;2022-08-25T00:50:19;3.63;;;3.33;;
7398;SDS011;3740;50.700;7.184;2022-08-25T00:52:47;3.88;;;3.58;;
7398;SDS011;3740;50.700;7.184;2022-08-25T00:55:21;3.88;;;3.58;;
7398;SDS011;3740;50.700;7.184;2022-08-25T01:00:31;3.58;;;3.28;;
7398;SDS011;3740;50.700;7.184;2022-08-25T01:03:03;3.80;;;3.50;;
7398;SDS011;3740;50.700;7.184;2022-08-25T01:05:30;3.80;;;3.40;;
7398;SDS011;3740;50.700;7.184;2022-08-25T01:07:57;3.78;;;3.40;;
7398;SDS011;3740;50.700;7.184;2022-08-25T01:10:28;3.67;;;3.35;;
7398;SDS011;3740;50.700;7.184;2022-08-25T01:12:59;4.07;;;3.67;;
7398;SDS011;3740;50.700;7.184;2022-08-25T01:15:30;4.05;;;3.25;;
7398;SDS011;3740;50.700;7.184;2022-08-25T01:17:57;4.35;;;3.35;;
7398;SDS011;3740;50.700;7.184;2022-08-25T01:20:24;3.83;;;3.53;;
7398;SDS011;3740;50.700;7.184;2022-08-25T01:22:52;3.50;;;3.20;;
7398;SDS011;3740;50.700;7.184;2022-08-25T01:25:24;4.07;;;3.40;;
7398;SDS011;3740;50.700;7.184;2022-08-25T01:28:01;3.72;;;3.38;;
7398;SDS011;3740;50.700;7.184;2022-08-25T01:30:27;4.28;;;3.38;;
7398;SDS011;3740;50.700;7.184;2022-08-25T01:32:53;4.22;;;3.30;;
7398;SDS011;3740;50.700;7.184;2022-08-25T01:35:19;3.50;;;3.20;;
7398;SDS011;3740;50.700;7.184;2022-08-25T01:37:44;3.58;;;3.28;;
7398;SDS011;3740;50.700;7.184;2022-08-25T01:40:11;3.50;;;3.20;;
7398;SDS011;3740;50.700;7.184;2022-08-25T01:42:46;3.05;;;2.75;;
7398;SDS011;3740;50.700;7.184;2022-08-25T01:45:26;6.53;;;3.20;;
7398;SDS011;3740;50.700;7.184;2022-08-25T01:47:52;4.45;;;3.20;;
7398;SDS011;3740;50.700;7.184;2022-08-25T01:50:18;3.85;;;3.50;;
7398;SDS011;3740;50.700;7.184;2022-08-25T01:52:53;3.50;;;3.20;;
7398;SDS011;3740;50.700;7.184;2022-08-25T01:55:31;3.55;;;3.25;;
7398;SDS011;3740;50.700;7.184;2022-08-25T01:58:24;3.58;;;2.92;;
7398;SDS011;3740;50.700;7.184;2022-08-25T02:00:55;4.45;;;3.17;;
7398;SDS011;3740;50.700;7.184;2022-08-25T02:03:22;3.30;;;3.10;;
7398;SDS011;3740;50.700;7.184;2022-08-25T02:05:49;3.45;;;3.13;;
7398;SDS011;3740;50.700;7.184;2022-08-25T02:08:16;4.22;;;3.42;;
7398;SDS011;3740;50.700;7.184;2022-08-25T02:10:42;3.20;;;2.90;;
7398;SDS011;3740;50.700;7.184;2022-08-25T02:13:08;3.30;;;3.00;;
7398;SDS011;3740;50.700;7.184;2022-08-25T02:15:37;3.10;;;2.90;;
7398;SDS011;3740;50.700;7.184;2022-08-25T02:18:05;3.33;;;2.80;;
7398;SDS011;3740;50.700;7.184;2022-08-25T02:20:30;3.03;;;2.70;;
7398;SDS011;3740;50.700;7.184;2022-08-25T02:22:56;4.53;;;3.03;;
7398;SDS011;3740;50.700;7.184;2022-08-25T02:25:21;3.15;;;2.85;;
7398;SDS011;3740;50.700;7.184;2022-08-25T02:27:47;3.20;;;2.90;;
7398;SDS011;3740;50.700;7.184;2022-08-25T02:30:13;3.35;;;3.05;;
7398;SDS011;3740;50.700;7.184;2022-08-25T02:32:41;2.80;;;2.60;;
7398;SDS011;3740;50.700;7.184;2022-08-25T02:35:07;4.03;;;3.33;;
7398;SDS011;3740;50.700;7.184;2022-08-25T02:37:33;3.03;;;2.83;;
7398;SDS011;3740;50.700;7.184;2022-08-25T02:39:59;3.45;;;2.65;;
7398;SDS011;3740;50.700;7.184;2022-08-25T02:42:35;3.35;;;2.90;;
7398;SDS011;3740;50.700;7.184;2022-08-25T02:45:00;3.03;;;2.70;;
7398;SDS011;3740;50.700;7.184;2022-08-25T02:47:26;3.67;;;3.25;;
7398;SDS011;3740;50.700;7.184;2022-08-25T02:49:52;3.78;;;3.15;;
7398;SDS011;3740;50.700;7.184;2022-08-25T02:52:19;3.85;;;3.00;;
7398;SDS011;3740;50.700;7.184;2022-08-25T02:54:45;3.15;;;2.92;;
7398;SDS011;3740;50.700;7.184;2022-08-25T02:57:10;3.70;;;3.40;;
7398;SDS011;3740;50.700;7.184;2022-08-25T02:59:42;3.50;;;3.00;;
7398;SDS011;3740;50.700;7.184;2022-08-25T03:02:12;3.20;;;2.90;;
7398;SDS011;3740;50.700;7.184;2022-08-25T03:04:40;3.35;;;3.08;;
7398;SDS011;3740;50.700;7.184;2022-08-25T03:07:09;3.15;;;2.95;;
7398;SDS011;3740;50.700;7.184;2022-08-25T03:09:35;3.95;;;3.10;;
7398;SDS011;3740;50.700;7.184;2022-08-25T03:12:01;3.33;;;3.03;;
7398;SDS011;3740;50.700;7.184;2022-08-25T03:14:30;3.03;;;2.83;;
7398;SDS011;3740;50.700;7.184;2022-08-25T03:16:55;3.22;;;2.92;;
7398;SDS011;3740;50.700;7.184;2022-08-25T03:19:21;3.65;;;3.15;;
7398;SDS011;3740;50.700;7.184;2022-08-25T03:21:48;3.30;;;3.05;;
7398;SDS011;3740;50.700;7.184;2022-08-25T03:24:16;4.03;;;3.13;;
7398;SDS011;3740;50.700;7.184;2022-08-25T03:26:42;3.60;;;3.30;;
7398;SDS011;3740;50.700;7.184;2022-08-25T03:29:23;3.45;;;3.15;;
7398;SDS011;3740;50.700;7.184;2022-08-25T03:31:51;3.42;;;3.13;;
7398;SDS011;3740;50.700;7.184;2022-08-25T03:34:19;3.33;;;3.10;;
7398;SDS011;3740;50.700;7.184;2022-08-25T03:36:47;3.70;;;3.30;;
7398;SDS011;3740;50.700;7.184;2022-08-25T03:39:15;3.15;;;2.95;;
7398;SDS011;3740;50.700;7.184;2022-08-25T03:41:45;3.70;;;3.40;;
7398;SDS011;3740;50.700;7.184;2022-08-25T03:44:11;3.72;;;3.30;;
7398;SDS011;3740;50.700;7.184;2022-08-25T03:46:38;4.85;;;3.28;;
7398;SDS011;3740;50.700;7.184;2022-08-25T03:49:07;3.80;;;3.50;;
7398;SDS011;3740;50.700;7.184;2022-08-25T03:51:36;3.22;;;3.00;;
7398;SDS011;3740;50.700;7.184;2022-08-25T03:54:05;4.03;;;3.50;;
7398;SDS011;3740;50.700;7.184;2022-08-25T03:56:31;3.42;;;3.13;;
7398;SDS011;3740;50.700;7.184;2022-08-25T03:58:57;3.22;;;2.92;;
7398;SDS011;3740;50.700;7.184;2022-08-25T04:01:24;3.35;;;3.05;;
7398;SDS011;3740;50.700;7.184;2022-08-25T04:03:51;3.28;;;3.08;;
7398;SDS011;3740;50.700;7.184;2022-08-25T04:06:17;4.20;;;3.17;;
7398;SDS011;3740;50.700;7.184;2022-08-25T04:08:43;4.78;;;3.88;;
7398;SDS011;3740;50.700;7.184;2022-08-25T04:11:11;4.80;;;3.60;;
7398;SDS011;3740;50.700;7.184;2022-08-25T04:13:38;3.45;;;3.15;;
7398;SDS011;3740;50.700;7.184;2022-08-25T04:16:17;3.70;;;3.40;;
7398;SDS011;3740;50.700;7.184;2022-08-25T04:18:44;4.10;;;3.25;;
7398;SDS011;3740;50.700;7.184;2022-08-25T04:21:12;3.63;;;3.33;;
7398;SDS011;3740;50.700;7.184;2022-08-25T04:23:39;3.80;;;3.50;;
7398;SDS011;3740;50.700;7.184;2022-08-25T04:26:19;3.58;;;3.10;;
7398;SDS011;3740;50.700;7.184;2022-08-25T04:28:45;3.65;;;3.35;;
7398;SDS011;3740;50.700;7.184;2022-08-25T04:31:12;3.80;;;3.45;;
7398;SDS011;3740;50.700;7.184;2022-08-25T04:33:39;4.00;;;3.60;;
7398;SDS011;3740;50.700;7.184;2022-08-25T04:36:06;3.72;;;3.42;;
7398;SDS011;3740;50.700;7.184;2022-08-25T04:38:36;5.15;;;3.67;;
7398;SDS011;3740;50.700;7.184;2022-08-25T04:41:04;3.65;;;3.30;;
7398;SDS011;3740;50.700;7.184;2022-08-25T04:43:31;4.45;;;3.63;;
7398;SDS011;3740;50.700;7.184;2022-08-25T04:45:58;3.90;;;3.42;;
7398;SDS011;3740;50.700;7.184;2022-08-25T04:48:25;4.47;;;3.83;;
7398;SDS011;3740;50.700;7.184;2022-08-25T04:50:51;4.03;;;3.58;;
7398;SDS011;3740;50.700;7.184;2022-08-25T04:53:17;5.63;;;3.72;;
7398;SDS011;3740;50.700;7.184;2022-08-25T04:55:43;4.25;;;3.83;;
7398;SDS011;3740;50.700;7.184;2022-08-25T04:58:11;3.85;;;3.53;;
7398;SDS011;3740;50.700;7.184;2022-08-25T05:00:38;3.97;;;3.63;;
7398;SDS011;3740;50.700;7.184;2022-08-25T05:03:04;4.25;;;3.90;;
7398;SDS011;3740;50.700;7.184;2022-08-25T05:05:30;4.10;;;3.80;;
7398;SDS011;3740;50.700;7.184;2022-08-25T05:07:59;4.32;;;3.90;;
7398;SDS011;3740;50.700;7.184;2022-08-25T05:10:25;6.03;;;3.60;;
7398;SDS011;3740;50.700;7.184;2022-08-25T05:12:50;4.55;;;3.95;;
7398;SDS011;3740;50.700;7.184;2022-08-25T05:15:19;5.93;;;4.40;;
7398;SDS011;3740;50.700;7.184;2022-08-25T05:18:03;4.63;;;4.10;;
7398;SDS011;3740;50.700;7.184;2022-08-25T05:20:30;4.63;;;4.20;;
7398;SDS011;3740;50.700;7.184;2022-08-25T05:22:56;4.30;;;3.90;;
7398;SDS011;3740;50.700;7.184;2022-08-25T05:25:23;5.05;;;3.88;;
7398;SDS011;3740;50.700;7.184;2022-08-25T05:27:48;4.43;;;4.07;;
7398;SDS011;3740;50.700;7.184;2022-08-25T05:30:14;4.80;;;4.38;;
7398;SDS011;3740;50.700;7.184;2022-08-25T05:32:40;4.88;;;4.47;;
7398;SDS011;3740;50.700;7.184;2022-08-25T05:35:06;5.15;;;3.85;;
7398;SDS011;3740;50.700;7.184;2022-08-25T05:37:32;4.47;;;4.07;;
7398;SDS011;3740;50.700;7.184;2022-08-25T05:39:58;4.55;;;4.15;;
7398;SDS011;3740;50.700;7.184;2022-08-25T05:42:24;4.90;;;4.30;;
7398;SDS011;3740;50.700;7.184;2022-08-25T05:44:52;4.97;;;4.55;;
7398;SDS011;3740;50.700;7.184;2022-08-25T05:47:18;4.30;;;3.90;;
7398;SDS011;3740;50.700;7.184;2022-08-25T05:49:46;4.60;;;4.20;;
7398;SDS011;3740;50.700;7.184;2022-08-25T05:52:11;5.45;;;4.15;;
7398;SDS011;3740;50.700;7.184;2022-08-25T05:54:37;4.68;;;4.28;;
7398;SDS011;3740;50.700;7.184;2022-08-25T05:57:04;4.75;;;4.30;;
7398;SDS011;3740;50.700;7.184;2022-08-25T05:59:30;5.22;;;4.05;;
7398;SDS011;3740;50.700;7.184;2022-08-25T06:01:56;4.40;;;4.00;;
7398;SDS011;3740;50.700;7.184;2022-08-25T06:04:40;4.32;;;3.92;;
7398;SDS011;3740;50.700;7.184;2022-08-25T06:07:06;4.90;;;4.40;;
7398;SDS011;3740;50.700;7.184;2022-08-25T06:09:31;5.55;;;4.13;;
7398;SDS011;3740;50.700;7.184;2022-08-25T06:12:00;4.72;;;4.18;;
7398;SDS011;3740;50.700;7.184;2022-08-25T06:14:26;5.70;;;4.38;;
7398;SDS011;3740;50.700;7.184;2022-08-25T06:16:52;4.68;;;4.10;;
7398;SDS011;3740;50.700;7.184;2022-08-25T06:19:17;6.28;;;4.47;;
7398;SDS011;3740;50.700;7.184;2022-08-25T06:21:43;5.50;;;4.57;;
7398;SDS011;3740;50.700;7.184;2022-08-25T06:24:09;6.10;;;4.80;;
7398;SDS011;3740;50.700;7.184;2022-08-25T06:26:35;5.50;;;5.00;;
7398;SDS011;3740;50.700;7.184;2022-08-25T06:29:02;6.13;;;5.05;;
7398;SDS011;3740;50.700;7.184;2022-08-25T06:31:29;5.30;;;4.80;;
7398;SDS011;3740;50.700;7.184;2022-08-25T06:33:54;5.28;;;4.72;;
7398;SDS011;3740;50.700;7.184;2022-08-25T06:36:22;7.53;;;5.00;;
7398;SDS011;3740;50.700;7.184;2022-08-25T06:38:47;7.80;;;4.90;;
7398;SDS011;3740;50.700;7.184;2022-08-25T06:41:13;4.97;;;4.50;;
7398;SDS011;3740;50.700;7.184;2022-08-25T06:43:40;7.28;;;5.05;;
7398;SDS011;3740;50.700;7.184;2022-08-25T06:46:07;5.10;;;4.60;;
7398;SDS011;3740;50.700;7.184;2022-08-25T06:48:38;7.15;;;4.70;;
7398;SDS011;3740;50.700;7.184;2022-08-25T06:51:08;5.70;;;4.80;;
7398;SDS011;3740;50.700;7.184;2022-08-25T06:53:36;4.95;;;4.50;;
7398;SDS011;3740;50.700;7.184;2022-08-25T06:56:03;6.03;;;4.53;;
7398;SDS011;3740;50.700;7.184;2022-08-25T06:58:29;6.25;;;4.78;;
7398;SDS011;3740;50.700;7.184;2022-08-25T07:01:32;5.95;;;4.63;;
7398;SDS011;3740;50.700;7.184;2022-08-25T07:03:51;6.68;;;4.68;;
7398;SDS011;3740;50.700;7.184;2022-08-25T07:06:21;6.28;;;4.97;;
7398;SDS011;3740;50.700;7.184;2022-08-25T07:08:47;6.53;;;4.80;;
7398;SDS011;3740;50.700;7.184;2022-08-25T07:11:13;5.95;;;4.22;;
7398;SDS011;3740;50.700;7.184;2022-08-25T07:13:40;4.95;;;4.35;;
7398;SDS011;3740;50.700;7.184;2022-08-25T07:16:06;5.13;;;4.60;;
7398;SDS011;3740;50.700;7.184;2022-08-25T07:18:33;6.38;;;4.85;;
7398;SDS011;3740;50.700;7.184;2022-08-25T07:20:59;5.43;;;4.65;;
7398;SDS011;3740;50.700;7.184;2022-08-25T07:23:25;5.30;;;4.47;;
7398;SDS011;3740;50.700;7.184;2022-08-25T07:25:51;4.95;;;4.10;;
7398;SDS011;3740;50.700;7.184;2022-08-25T07:28:18;7.70;;;4.95;;
7398;SDS011;3740;50.700;7.184;2022-08-25T07:30:45;6.80;;;4.85;;
7398;SDS011;3740;50.700;7.184;2022-08-25T07:33:11;5.68;;;5.10;;
7398;SDS011;3740;50.700;7.184;2022-08-25T07:35:37;6.28;;;5.43;;
7398;SDS011;3740;50.700;7.184;2022-08-25T07:38:03;5.15;;;4.65;;
7398;SDS011;3740;50.700;7.184;2022-08-25T07:40:33;5.05;;;4.57;;
7398;SDS011;3740;50.700;7.184;2022-08-25T07:43:02;6.65;;;4.88;;
7398;SDS011;3740;50.700;7.184;2022-08-25T07:45:30;7.22;;;3.97;;
7398;SDS011;3740;50.700;7.184;2022-08-25T07:48:01;5.82;;;4.65;;
7398;SDS011;3740;50.700;7.184;2022-08-25T07:50:33;7.00;;;5.55;;
7398;SDS011;3740;50.700;7.184;2022-08-25T07:52:59;5.22;;;4.72;;
7398;SDS011;3740;50.700;7.184;2022-08-25T07:55:25;6.13;;;5.00;;
7398;SDS011;3740;50.700;7.184;2022-08-25T07:57:52;5.97;;;4.40;;
7398;SDS011;3740;50.700;7.184;2022-08-25T08:00:19;5.72;;;4.43;;
7398;SDS011;3740;50.700;7.184;2022-08-25T08:02:45;5.65;;;4.78;;
7398;SDS011;3740;50.700;7.184;2022-08-25T08:05:11;7.53;;;4.65;;
7398;SDS011;3740;50.700;7.184;2022-08-25T08:07:38;5.82;;;5.00;;
7398;SDS011;3740;50.700;7.184;2022-08-25T08:10:05;5.15;;;4.65;;
7398;SDS011;3740;50.700;7.184;2022-08-25T08:12:33;5.65;;;5.00;;
7398;SDS011;3740;50.700;7.184;2022-08-25T08:14:59;5.90;;;5.30;;
7398;SDS011;3740;50.700;7.184;2022-08-25T08:17:25;5.25;;;4.70;;
7398;SDS011;3740;50.700;7.184;2022-08-25T08:19:51;8.95;;;5.38;;
7398;SDS011;3740;50.700;7.184;2022-08-25T08:22:17;6.30;;;5.20;;
7398;SDS011;3740;50.700;7.184;2022-08-25T08:24:43;6.72;;;5.30;;
7398;SDS011;3740;50.700;7.184;2022-08-25T08:27:12;5.32;;;4.82;;
7398;SDS011;3740;50.700;7.184;2022-08-25T08:29:38;6.03;;;5.32;;
7398;SDS011;3740;50.700;7.184;2022-08-25T08:32:06;5.00;;;4.50;;
7398;SDS011;3740;50.700;7.184;2022-08-25T08:34:33;5.18;;;4.70;;
7398;SDS011;3740;50.700;7.184;2022-08-25T08:36:59;8.90;;;5.32;;
7398;SDS011;3740;50.700;7.184;2022-08-25T08:39:26;6.97;;;5.55;;
7398;SDS011;3740;50.700;7.184;2022-08-25T08:57:57;5.63;;;5.13;;
7398;SDS011;3740;50.700;7.184;2022-08-25T09:00:25;7.30;;;5.22;;
7398;SDS011;3740;50.700;7.184;2022-08-25T09:02:55;5.78;;;5.28;;
7398;SDS011;3740;50.700;7.184;2022-08-25T09:05:27;5.90;;;5.40;;
7398;SDS011;3740;50.700;7.184;2022-08-25T09:08:28;5.75;;;5.22;;
7398;SDS011;3740;50.700;7.184;2022-08-25T09:10:56;6.13;;;5.20;;
7398;SDS011;3740;50.700;7.184;2022-08-25T09:13:43;7.70;;;5.50;;
7398;SDS011;3740;50.700;7.184;2022-08-25T09:16:21;5.85;;;4.95;;
7398;SDS011;3740;50.700;7.184;2022-08-25T09:27:44;5.70;;;5.13;;
7398;SDS011;3740;50.700;7.184;2022-08-25T09:30:18;5.30;;;4.80;;
7398;SDS011;3740;50.700;7.184;2022-08-25T09:32:46;5.78;;;5.10;;
7398;SDS011;3740;50.700;7.184;2022-08-25T09:35:20;7.57;;;5.30;;
7398;SDS011;3740;50.700;7.184;2022-08-25T09:38:06;8.35;;;5.20;;
7398;SDS011;3740;50.700;7.184;2022-08-25T09:40:42;7.03;;;5.45;;
7398;SDS011;3740;50.700;7.184;2022-08-25T09:43:18;5.85;;;5.22;;
7398;SDS011;3740;50.700;7.184;2022-08-25T09:45:45;5.80;;;5.30;;
7398;SDS011;3740;50.700;7.184;2022-08-25T09:50:52;5.70;;;5.22;;
7398;SDS011;3740;50.700;7.184;2022-08-25T09:53:23;6.03;;;5.47;;
7398;SDS011;3740;50.700;7.184;2022-08-25T09:56:11;5.60;;;5.10;;
7398;SDS011;3740;50.700;7.184;2022-08-25T09:58:36;5.63;;;5.13;;
7398;SDS011;3740;50.700;7.184;2022-08-25T10:01:10;9.15;;;5.13;;
7398;SDS011;3740;50.700;7.184;2022-08-25T10:03:37;5.55;;;5.05;;
7398;SDS011;3740;50.700;7.184;2022-08-25T10:06:25;6.28;;;5.28;;
7398;SDS011;3740;50.700;7.184;2022-08-25T10:08:57;7.80;;;5.07;;
7398;SDS011;3740;50.700;7.184;2022-08-25T10:11:31;5.43;;;5.03;;
7398;SDS011;3740;50.700;7.184;2022-08-25T10:16:49;5.85;;;5.15;;
7398;SDS011;3740;50.700;7.184;2022-08-25T10:19:23;5.57;;;5.07;;
7398;SDS011;3740;50.700;7.184;2022-08-25T10:22:07;5.57;;;5.10;;
7398;SDS011;3740;50.700;7.184;2022-08-25T10:24:37;5.43;;;4.85;;
7398;SDS011;3740;50.700;7.184;2022-08-25T10:30:05;5.68;;;4.85;;
7398;SDS011;3740;50.700;7.184;2022-08-25T10:32:47;5.45;;;4.88;;
7398;SDS011;3740;50.700;7.184;2022-08-25T10:35:22;7.00;;;4.53;;
7398;SDS011;3740;50.700;7.184;2022-08-25T10:40:39;5.15;;;4.75;;
7398;SDS011;3740;50.700;7.184;2022-08-25T10:43:39;5.88;;;5.18;;
7398;SDS011;3740;50.700;7.184;2022-08-25T10:52:00;4.65;;;4.20;;
7398;SDS011;3740;50.700;7.184;2022-08-25T11:00:14;4.55;;;4.13;;
7398;SDS011;3740;50.700;7.184;2022-08-25T11:05:54;4.03;;;3.67;;
7398;SDS011;3740;50.700;7.184;2022-08-25T11:11:12;4.07;;;3.78;;
7398;SDS011;3740;50.700;7.184;2022-08-25T11:14:08;3.90;;;3.60;;
7398;SDS011;3740;50.700;7.184;2022-08-25T11:16:42;4.40;;;4.03;;
7398;SDS011;3740;50.700;7.184;2022-08-25T11:21:49;3.78;;;3.50;;
7398;SDS011;3740;50.700;7.184;2022-08-25T11:27:46;4.25;;;3.85;;
7398;SDS011;3740;50.700;7.184;2022-08-25T11:30:24;4.10;;;3.78;;
7398;SDS011;3740;50.700;7.184;2022-08-25T11:32:51;3.78;;;3.58;;
7398;SDS011;3740;50.700;7.184;2022-08-25T11:35:19;4.20;;;3.90;;
7398;SDS011;3740;50.700;7.184;2022-08-25T11:38:19;5.18;;;3.80;;
7398;SDS011;3740;50.700;7.184;2022-08-25T11:46:20;3.80;;;3.60;;
7398;SDS011;3740;50.700;7.184;2022-08-25T11:49:06;4.10;;;3.80;;
7398;SDS011;3740;50.700;7.184;2022-08-25T11:51:53;3.67;;;3.47;;
7398;SDS011;3740;50.700;7.184;2022-08-25T11:57:08;4.10;;;3.80;;
7398;SDS011;3740;50.700;7.184;2022-08-25T12:19:12;4.15;;;3.90;;
7398;SDS011;3740;50.700;7.184;2022-08-25T12:21:47;3.85;;;3.60;;
7398;SDS011;3740;50.700;7.184;2022-08-25T12:24:14;5.47;;;4.00;;
7398;SDS011;3740;50.700;7.184;2022-08-25T12:26:48;3.72;;;3.50;;
7398;SDS011;3740;50.700;7.184;2022-08-25T12:29:24;4.32;;;4.03;;
7398;SDS011;3740;50.700;7.184;2022-08-25T12:32:37;4.22;;;3.92;;
7398;SDS011;3740;50.700;7.184;2022-08-25T12:37:23;3.78;;;3.58;;
7398;SDS011;3740;50.700;7.184;2022-08-25T12:47:42;3.95;;;3.65;;
7398;SDS011;3740;50.700;7.184;2022-08-25T12:55:51;4.10;;;3.80;;
7398;SDS011;3740;50.700;7.184;2022-08-25T12:58:22;4.10;;;3.70;;
7398;SDS011;3740;50.700;7.184;2022-08-25T13:01:03;3.90;;;3.60;;
7398;SDS011;3740;50.700;7.184;2022-08-25T13:14:54;3.10;;;2.90;;
7398;SDS011;3740;50.700;7.184;2022-08-25T13:17:25;2.97;;;2.78;;
7398;SDS011;3740;50.700;7.184;2022-08-25T13:20:09;3.47;;;3.28;;
7398;SDS011;3740;50.700;7.184;2022-08-25T13:22:38;2.97;;;2.78;;
7398;SDS011;3740;50.700;7.184;2022-08-25T13:25:04;3.40;;;3.10;;
7398;SDS011;3740;50.700;7.184;2022-08-25T13:27:30;3.63;;;3.33;;
7398;SDS011;3740;50.700;7.184;2022-08-25T13:29:59;3.17;;;2.97;;
7398;SDS011;3740;50.700;7.184;2022-08-25T13:32:29;3.58;;;3.28;;
7398;SDS011;3740;50.700;7.184;2022-08-25T13:37:41;3.13;;;2.85;;
7398;SDS011;3740;50.700;7.184;2022-08-25T13:42:48;3.50;;;3.20;;
7398;SDS011;3740;50.700;7.184;2022-08-25T13:45:17;2.95;;;2.75;;
7398;SDS011;3740;50.700;7.184;2022-08-25T13:47:46;4.38;;;2.90;;
7398;SDS011;3740;50.700;7.184;2022-08-25T13:55:36;2.70;;;2.60;;
7398;SDS011;3740;50.700;7.184;2022-08-25T13:58:12;2.80;;;2.70;;
7398;SDS011;3740;50.700;7.184;2022-08-25T14:00:58;3.50;;;3.20;;
7398;SDS011;3740;50.700;7.184;2022-08-25T14:03:36;3.08;;;2.88;;
7398;SDS011;3740;50.700;7.184;2022-08-25T14:08:48;3.05;;;2.83;;
7398;SDS011;3740;50.700;7.184;2022-08-25T14:11:32;3.15;;;2.95;;
7398;SDS011;3740;50.700;7.184;2022-08-25T14:14:32;2.90;;;2.70;;
7398;SDS011;3740;50.700;7.184;2022-08-25T14:17:00;2.72;;;2.53;;
7398;SDS011;3740;50.700;7.184;2022-08-25T14:19:31;3.20;;;3.00;;
7398;SDS011;3740;50.700;7.184;2022-08-25T14:21:58;2.88;;;2.65;;
7398;SDS011;3740;50.700;7.184;2022-08-25T14:24:27;3.13;;;2.80;;
7398;SDS011;3740;50.700;7.184;2022-08-25T14:26:57;3.22;;;2.85;;
7398;SDS011;3740;50.700;7.184;2022-08-25T14:29:23;2.95;;;2.75;;
7398;SDS011;3740;50.700;7.184;2022-08-25T14:31:48;3.25;;;3.05;;
7398;SDS011;3740;50.700;7.184;2022-08-25T14:34:18;3.00;;;2.80;;
7398;SDS011;3740;50.700;7.184;2022-08-25T14:36:47;2.95;;;2.75;;
7398;SDS011;3740;50.700;7.184;2022-08-25T14:39:14;3.20;;;2.90;;
7398;SDS011;3740;50.700;7.184;2022-08-25T14:41:43;3.10;;;2.90;;
7398;SDS011;3740;50.700;7.184;2022-08-25T14:44:10;3.15;;;2.85;;
7398;SDS011;3740;50.700;7.184;2022-08-25T14:46:41;2.92;;;2.72;;
7398;SDS011;3740;50.700;7.184;2022-08-25T14:49:10;3.00;;;2.80;;
7398;SDS011;3740;50.700;7.184;2022-08-25T14:51:40;2.95;;;2.67;;
7398;SDS011;3740;50.700;7.184;2022-08-25T14:56:34;4.07;;;3.38;;
7398;SDS011;3740;50.700;7.184;2022-08-25T14:59:00;3.25;;;2.95;;
7398;SDS011;3740;50.700;7.184;2022-08-25T15:01:26;3.38;;;3.08;;
7398;SDS011;3740;50.700;7.184;2022-08-25T15:03:55;3.13;;;2.92;;
7398;SDS011;3740;50.700;7.184;2022-08-25T15:06:27;3.55;;;3.33;;
7398;SDS011;3740;50.700;7.184;2022-08-25T15:08:53;3.33;;;3.00;;
7398;SDS011;3740;50.700;7.184;2022-08-25T15:11:41;3.15;;;2.95;;
7398;SDS011;3740;50.700;7.184;2022-08-25T15:14:09;3.53;;;3.25;;
7398;SDS011;3740;50.700;7.184;2022-08-25T15:16:40;3.17;;;2.88;;
7398;SDS011;3740;50.700;7.184;2022-08-25T15:19:09;3.30;;;3.00;;
7398;SDS011;3740;50.700;7.184;2022-08-25T15:21:38;3.35;;;3.15;;
7398;SDS011;3740;50.700;7.184;2022-08-25T15:24:05;3.20;;;3.00;;
7398;SDS011;3740;50.700;7.184;2022-08-25T15:26:34;3.55;;;3.25;;
7398;SDS011;3740;50.700;7.184;2022-08-25T15:29:07;3.70;;;3.40;;
7398;SDS011;3740;50.700;7.184;2022-08-25T15:31:33;3.65;;;3.42;;
7398;SDS011;3740;50.700;7.184;2022-08-25T15:33:59;3.75;;;3.45;;
7398;SDS011;3740;50.700;7.184;2022-08-25T15:36:24;3.40;;;3.10;;
7398;SDS011;3740;50.700;7.184;2022-08-25T15:38:50;3.50;;;3.30;;
7398;SDS011;3740;50.700;7.184;2022-08-25T15:41:17;4.50;;;3.70;;
7398;SDS011;3740;50.700;7.184;2022-08-25T15:43:44;3.88;;;3.35;;
7398;SDS011;3740;50.700;7.184;2022-08-25T15:46:10;3.88;;;3.58;;
7398;SDS011;3740;50.700;7.184;2022-08-25T15:48:39;3.40;;;3.20;;
7398;SDS011;3740;50.700;7.184;2022-08-25T15:51:05;4.13;;;3.80;;
7398;SDS011;3740;50.700;7.184;2022-08-25T15:53:34;4.80;;;3.80;;
7398;SDS011;3740;50.700;7.184;2022-08-25T15:56:00;4.03;;;3.72;;
7398;SDS011;3740;50.700;7.184;2022-08-25T15:58:27;4.20;;;3.80;;
7398;SDS011;3740;50.700;7.184;2022-08-25T16:00:53;4.10;;;3.80;;
7398;SDS011;3740;50.700;7.184;2022-08-25T16:03:19;4.18;;;3.80;;
7398;SDS011;3740;50.700;7.184;2022-08-25T16:05:44;3.88;;;3.58;;
7398;SDS011;3740;50.700;7.184;2022-08-25T16:08:10;3.60;;;3.38;;
7398;SDS011;3740;50.700;7.184;2022-08-25T16:10:38;3.92;;;3.58;;
7398;SDS011;3740;50.700;7.184;2022-08-25T16:13:08;4.38;;;4.05;;
7398;SDS011;3740;50.700;7.184;2022-08-25T16:15:35;3.78;;;3.47;;
7398;SDS011;3740;50.700;7.184;2022-08-25T16:18:02;4.15;;;3.83;;
7398;SDS011;3740;50.700;7.184;2022-08-25T16:20:30;4.10;;;3.80;;
7398;SDS011;3740;50.700;7.184;2022-08-25T16:22:58;4.15;;;3.75;;
7398;SDS011;3740;50.700;7.184;2022-08-25T16:25:26;3.85;;;3.50;;
7398;SDS011;3740;50.700;7.184;2022-08-25T16:27:52;4.63;;;4.05;;
7398;SDS011;3740;50.700;7.184;2022-08-25T16:30:18;4.15;;;3.72;;
7398;SDS011;3740;50.700;7.184;2022-08-25T16:32:45;4.38;;;4.07;;
7398;SDS011;3740;50.700;7.184;2022-08-25T16:35:11;4.20;;;3.90;;
7398;SDS011;3740;50.700;7.184;2022-08-25T16:37:37;4.20;;;3.90;;
7398;SDS011;3740;50.700;7.184;2022-08-25T16:40:03;4.20;;;3.90;;
7398;SDS011;3740;50.700;7.184;2022-08-25T16:42:29;4.60;;;4.30;;
7398;SDS011;3740;50.700;7.184;2022-08-25T16:44:54;4.15;;;3.85;;
7398;SDS011;3740;50.700;7.184;2022-08-25T16:47:20;4.30;;;3.90;;
7398;SDS011;3740;50.700;7.184;2022-08-25T16:49:46;4.20;;;3.88;;
7398;SDS011;3740;50.700;7.184;2022-08-25T16:52:12;3.85;;;3.63;;
7398;SDS011;3740;50.700;7.184;2022-08-25T16:54:56;4.70;;;4.30;;
7398;SDS011;3740;50.700;7.184;2022-08-25T16:57:39;4.82;;;3.85;;
7398;SDS011;3740;50.700;7.184;2022-08-25T17:00:11;4.50;;;4.10;;
7398;SDS011;3740;50.700;7.184;2022-08-25T17:02:39;4.88;;;4.47;;
7398;SDS011;3740;50.700;7.184;2022-08-25T17:05:05;4.35;;;4.03;;
7398;SDS011;3740;50.700;7.184;2022-08-25T17:07:34;4.50;;;4.20;;
7398;SDS011;3740;50.700;7.184;2022-08-25T17:10:00;4.20;;;3.90;;
7398;SDS011;3740;50.700;7.184;2022-08-25T17:12:29;4.43;;;4.03;;
7398;SDS011;3740;50.700;7.184;2022-08-25T17:14:55;4.50;;;4.10;;
7398;SDS011;3740;50.700;7.184;2022-08-25T17:17:20;4.40;;;4.10;;
7398;SDS011;3740;50.700;7.184;2022-08-25T17:19:46;4.75;;;4.45;;
7398;SDS011;3740;50.700;7.184;2022-08-25T17:22:12;4.80;;;4.07;;
7398;SDS011;3740;50.700;7.184;2022-08-25T17:24:44;4.80;;;4.40;;
7398;SDS011;3740;50.700;7.184;2022-08-25T17:27:10;4.90;;;4.20;;
7398;SDS011;3740;50.700;7.184;2022-08-25T17:29:37;4.82;;;4.30;;
7398;SDS011;3740;50.700;7.184;2022-08-25T17:32:04;4.70;;;4.40;;
7398;SDS011;3740;50.700;7.184;2022-08-25T17:34:30;4.55;;;4.25;;
7398;SDS011;3740;50.700;7.184;2022-08-25T17:36:56;4.60;;;4.20;;
7398;SDS011;3740;50.700;7.184;2022-08-25T17:39:22;5.03;;;4.53;;
7398;SDS011;3740;50.700;7.184;2022-08-25T17:41:49;4.88;;;4.40;;